ADDS METAR Data INFO
IDs: Format: Raw Decoded Include TAF

Data at: 0258 UTC 17 Jan 2018

KCPC 170235Z AUTO 00000KT 10SM CLR 02/M01 A3035 RMK AO2 T00211010
KCPC 170215Z AUTO 00000KT 10SM CLR 03/M01 A3035 RMK AO2 T00251012
KCPC 170155Z AUTO 00000KT 10SM CLR 03/M01 A3035 RMK AO2 T00301010
KCPC 170135Z AUTO 00000KT 10SM CLR 03/00 A3035 RMK AO2 T00311005
KCPC 170115Z AUTO 00000KT 10SM CLR 03/00 A3036 RMK AO2 T00330000
KCPC 170055Z AUTO 00000KT 10SM CLR 04/00 A3036 RMK AO2 T00371005
KCPC 170035Z AUTO 00000KT 10SM CLR 04/00 A3035 RMK AO2 T00411002
KCPC 170015Z AUTO 00000KT 10SM CLR 05/M01 A3035 RMK AO2 T00491012
KCPC 162355Z AUTO 00000KT 10SM CLR 05/M01 A3036 RMK AO2 T00471013 10115 20047
KCPC 162335Z AUTO 00000KT 10SM CLR 06/M01 A3036 RMK AO2 T00561012
KCPC 162315Z AUTO 00000KT 10SM CLR 07/M01 A3036 RMK AO2 T00661013
KCPC 162255Z AUTO 00000KT 10SM CLR 07/M02 A3035 RMK AO2 T00711019
KCPC 162235Z AUTO 00000KT 10SM CLR 08/M02 A3036 RMK AO2 T00801023
KCPC 162215Z AUTO 00000KT 10SM CLR 09/M02 A3036 RMK AO2 T00881023
KCPC 162155Z AUTO 00000KT 10SM CLR 10/M03 A3037 RMK AO2 T01011035
KCPC 162135Z AUTO 27003KT 10SM CLR 11/M03 A3037 RMK AO2 T01051034
KCPC 162115Z AUTO 00000KT 10SM CLR 11/M03 A3037 RMK AO2 T01071035
KCPC 162055Z AUTO 00000KT 10SM CLR 11/M04 A3036 RMK AO2 T01101037
KCPC 162035Z AUTO 00000KT 10SM CLR 11/M03 A3035 RMK AO2 T01111035
KCPC 162015Z AUTO 00000KT 10SM CLR 11/M04 A3035 RMK AO2 T01101039
KCPC 161955Z AUTO 00000KT 10SM CLR 11/M04 A3035 RMK AO2 T01061038
KCPC 161935Z AUTO 00000KT 10SM CLR 11/M04 A3035 RMK AO2 T01061041
KCPC 161915Z AUTO 00000KT 10SM CLR 11/M04 A3036 RMK AO2 T01071040
KCPC 161855Z AUTO 00000KT 10SM CLR 10/M04 A3037 RMK AO2 T01021042
KCPC 161815Z AUTO 00000KT 10SM CLR 09/M04 A3039 RMK AO2 T00941043
KCPC 161755Z AUTO 00000KT 10SM CLR 09/M05 A3040 RMK AO2 T00871046 10089 21040
KCPC 161735Z AUTO 00000KT 10SM CLR 09/M04 A3041 RMK AO2 T00851044
KCPC 161715Z AUTO 00000KT 10SM CLR 08/M05 A3042 RMK AO2 T00771047
KCPC 161655Z AUTO 00000KT 10SM CLR 07/M05 A3043 RMK AO2 T00741046
KCPC 161635Z AUTO 10003KT 10SM CLR 07/M04 A3045 RMK AO2 T00681045
KCPC 161615Z AUTO 07003KT 10SM CLR 06/M05 A3045 RMK AO2 T00591046
KCPC 161555Z AUTO 00000KT 10SM CLR 05/M04 A3047 RMK AO2 T00541040
KCPC 161535Z AUTO 00000KT 10SM CLR 05/M04 A3047 RMK AO2 T00451036
KCPC 161515Z AUTO 00000KT 10SM CLR 04/M04 A3048 RMK AO2 T00361037
KCPC 161455Z AUTO 04003KT 10SM CLR 03/M04 A3048 RMK AO2 T00261040
KCPC 161435Z AUTO 05003KT 10SM CLR 02/M04 A3048 RMK AO2 T00161039
KCPC 161415Z AUTO 00000KT 10SM CLR 01/M04 A3049 RMK AO2 T00091038
KCPC 161355Z AUTO 00000KT 10SM CLR 00/M05 A3048 RMK AO2 T10031047
KCPC 161335Z AUTO 00000KT 10SM CLR M01/M05 A3048 RMK AO2 T10101050
KCPC 161315Z AUTO 00000KT 10SM CLR M02/M05 A3047 RMK AO2 T10241047
KCPC 161255Z AUTO 00000KT 10SM CLR M04/M06 A3047 RMK AO2 T10361056
KCPC 161235Z AUTO 00000KT 10SM CLR M04/M06 A3047 RMK AO2 T10401059
KCPC 161215Z AUTO 00000KT 10SM CLR M03/M06 A3047 RMK AO2 T10341056
KCPC 161155Z AUTO 00000KT 10SM CLR M03/M06 A3046 RMK AO2 T10341057 11018 21039
KCPC 161135Z AUTO 00000KT 10SM CLR M03/M06 A3046 RMK AO2 T10351060
KCPC 161115Z AUTO 00000KT 10SM CLR M03/M06 A3046 RMK AO2 T10351056
KCPC 161055Z AUTO 00000KT 10SM CLR M04/M06 A3046 RMK AO2 T10371058
KCPC 161035Z AUTO 00000KT 10SM CLR M03/M06 A3046 RMK AO2 T10321056
KCPC 161015Z AUTO 00000KT 10SM CLR M03/M06 A3045 RMK AO2 T10351060
KCPC 160955Z AUTO 00000KT 10SM CLR M03/M06 A3045 RMK AO2 T10311057
KCPC 160935Z AUTO 00000KT 10SM CLR M03/M05 A3046 RMK AO2 T10271055
KCPC 160915Z AUTO 00000KT 10SM CLR M02/M05 A3045 RMK AO2 T10251055
KCPC 160855Z AUTO 00000KT 10SM CLR M02/M05 A3045 RMK AO2 T10231050
KCPC 160835Z AUTO 00000KT 10SM CLR M02/M05 A3044 RMK AO2 T10241049
KCPC 160815Z AUTO 00000KT 10SM CLR M02/M05 A3044 RMK AO2 T10251046
KCPC 160755Z AUTO 00000KT 10SM CLR M02/M05 A3044 RMK AO2 T10221046
KCPC 160735Z AUTO 00000KT 10SM CLR M02/M04 A3044 RMK AO2 T10231045
KCPC 160715Z AUTO 00000KT 10SM CLR M02/M04 A3044 RMK AO2 T10211043
KCPC 160655Z AUTO 00000KT 10SM CLR M02/M05 A3044 RMK AO2 T10201053
KCPC 160635Z AUTO 00000KT 10SM CLR M02/M04 A3044 RMK AO2 T10181044
KCPC 160615Z AUTO 00000KT 10SM CLR M02/M05 A3044 RMK AO2 T10251047
KCPC 160555Z AUTO 00000KT 10SM CLR M02/M05 A3044 RMK AO2 T10231049 10012 21024 400641045
KCPC 160535Z AUTO 00000KT 10SM CLR M02/M05 A3044 RMK AO2 T10211048
KCPC 160515Z AUTO 00000KT 10SM CLR M02/M04 A3044 RMK AO2 T10201041
KCPC 160455Z AUTO 00000KT 10SM CLR M02/M04 A3044 RMK AO2 T10201045
KCPC 160435Z AUTO 00000KT 10SM CLR M02/M05 A3044 RMK AO2 T10211049
KCPC 160415Z AUTO 00000KT 10SM CLR M02/M05 A3045 RMK AO2 T10191050
KCPC 160355Z AUTO 00000KT 10SM CLR M01/M04 A3047 RMK AO2 T10151040
KCPC 160335Z AUTO 00000KT 10SM CLR M01/M05 A3047 RMK AO2 T10121046
KCPC 160315Z AUTO 00000KT 10SM CLR M01/M04 A3047 RMK AO2 T10111040
KCPC 160255Z AUTO 00000KT 10SM CLR M01/M04 A3047 RMK AO2 T10111045
KCPC 160235Z AUTO 00000KT 10SM CLR M01/M04 A3047 RMK AO2 T10111040
KCPC 160215Z AUTO 00000KT 10SM CLR M01/M04 A3046 RMK AO2 T10081036
KCPC 160155Z AUTO 00000KT 10SM CLR M01/M05 A3047 RMK AO2 T10101046
KCPC 160135Z AUTO 00000KT 10SM CLR M01/M04 A3046 RMK AO2 T10081045
KCPC 160115Z AUTO 00000KT 10SM CLR 00/M04 A3046 RMK AO2 T10021037
KCPC 160055Z AUTO 00000KT 10SM CLR 00/M04 A3046 RMK AO2 T00001039
KCPC 160035Z AUTO 00000KT 10SM CLR 00/M05 A3045 RMK AO2 T00021047
KCPC 160015Z AUTO 00000KT 10SM CLR 01/M04 A3044 RMK AO2 T00051045
KCPC 152355Z AUTO 00000KT 10SM CLR 01/M05 A3044 RMK AO2 T00121050 10064 20012
KCPC 152335Z AUTO 00000KT 10SM CLR 02/M04 A3044 RMK AO2 T00161045
KCPC 152315Z AUTO 00000KT 10SM CLR 02/M05 A3043 RMK AO2 T00221053
KCPC 152255Z AUTO 00000KT 10SM CLR 03/M06 A3043 RMK AO2 T00311061
KCPC 152235Z AUTO 00000KT 10SM CLR 04/M06 A3043 RMK AO2 T00401061
KCPC 152215Z AUTO 00000KT 10SM CLR 05/M06 A3042 RMK AO2 T00491063
KCPC 152155Z AUTO 00000KT 10SM CLR 06/M06 A3042 RMK AO2 T00551065
KCPC 152135Z AUTO 35003KT 10SM CLR 06/M06 A3042 RMK AO2 T00581064
KCPC 152115Z AUTO 29003KT 10SM CLR 06/M06 A3043 RMK AO2 T00611064
KCPC 152055Z AUTO 28003KT 10SM CLR 06/M06 A3042 RMK AO2 T00641060
KCPC 152035Z AUTO 00000KT 10SM CLR 06/M06 A3042 RMK AO2 T00601064
KCPC 152015Z AUTO 04005KT 10SM CLR 06/M06 A3040 RMK AO2 T00591064
KCPC 151955Z AUTO 00000KT 10SM CLR 06/M07 A3040 RMK AO2 T00561067
KCPC 151935Z AUTO 36003KT 10SM CLR 06/M07 A3040 RMK AO2 T00551067
KCPC 151915Z AUTO 00000KT 10SM CLR 05/M07 A3041 RMK AO2 T00501068
KCPC 151855Z AUTO 34004KT 10SM CLR 05/M07 A3040 RMK AO2 T00511066
KCPC 151835Z AUTO 34004KT 10SM CLR 04/M07 A3041 RMK AO2 T00421070
KCPC 151815Z AUTO 01006KT 10SM CLR 04/M07 A3043 RMK AO2 T00411067
KCPC 151755Z AUTO 35005KT 10SM CLR 04/M07 A3045 RMK AO2 T00381067 10038 21045
KCPC 151735Z AUTO 34003KT 10SM CLR 03/M07 A3046 RMK AO2 T00301071
KCPC 151715Z AUTO 01004KT 10SM CLR 02/M07 A3047 RMK AO2 T00231072
KCPC 151655Z AUTO 35005KT 10SM CLR 02/M08 A3048 RMK AO2 T00161079
KCPC 151635Z AUTO 32004KT 10SM CLR 01/M08 A3049 RMK AO2 T00071083
KCPC 151615Z AUTO 33004KT 10SM CLR 00/M09 A3050 RMK AO2 T00031086
KCPC 151555Z AUTO 35005KT 10SM CLR 00/M09 A3052 RMK AO2 T10011094
KCPC 151535Z AUTO 32003KT 10SM CLR M01/M10 A3052 RMK AO2 T10091098
KCPC 151515Z AUTO 32004KT 10SM CLR M01/M10 A3052 RMK AO2 T10151100